Terminal Aerodrome Forecast
Issued by NWS

Home | Current Version | Previous Version | Text Only | Print | Product List | Glossary On
Versions: 1 2 3 4 5 6 7 8 9 10
000
FTUS45 KGGW 280500
TAFSDY
TAF
KSDY 280531Z 2806/2906 VRB05KT P6SM BKN080
     FM280900 03006KT P6SM SCT020 OVC040
     FM281500 04009KT P6SM SCT010 BKN020
     FM290000 36008KT P6SM BKN040
      AMD LTD TO CLD VIS AND WIND=

USA.gov is the U.S. government's official web portal to all federal, state and local government web resources and services.